createdAt,value
2019-03-17T00:01:19.347Z,2.60
2019-03-17T00:03:50.047Z,2.97
2019-03-17T00:06:20.343Z,2.63
2019-03-17T00:08:51.183Z,2.50
2019-03-17T00:11:21.561Z,2.63
2019-03-17T00:13:51.895Z,2.90
2019-03-17T00:16:22.293Z,3.10
2019-03-17T00:18:52.989Z,3.50
2019-03-17T00:21:23.378Z,2.97
2019-03-17T00:23:53.896Z,2.90
2019-03-17T00:26:24.238Z,3.40
2019-03-17T00:28:54.957Z,3.00
2019-03-17T00:31:25.617Z,2.60
2019-03-17T00:33:55.989Z,3.47
2019-03-17T00:36:26.699Z,4.97
2019-03-17T00:38:57.292Z,5.03
2019-03-17T00:41:27.607Z,6.33
2019-03-17T00:43:57.945Z,5.17
2019-03-17T00:46:28.628Z,4.97
2019-03-17T00:48:58.910Z,5.40
2019-03-17T00:51:29.253Z,5.90
2019-03-17T00:53:59.692Z,6.57
2019-03-17T00:56:30.332Z,6.90
2019-03-17T00:59:01.025Z,6.63
2019-03-17T01:01:31.346Z,6.40
2019-03-17T01:04:01.825Z,6.17
2019-03-17T01:06:32.546Z,6.43
2019-03-17T01:09:03.215Z,7.17
2019-03-17T01:11:33.734Z,7.70
2019-03-17T01:14:04.103Z,7.83
2019-03-17T01:16:34.494Z,6.33
2019-03-17T01:19:04.798Z,7.10
2019-03-17T01:21:35.525Z,7.80
2019-03-17T01:24:06.153Z,7.53
2019-03-17T01:26:36.774Z,7.43
2019-03-17T01:29:07.060Z,6.60
2019-03-17T01:31:38.470Z,7.13
2019-03-17T01:34:10.534Z,6.63
2019-03-17T01:36:40.860Z,7.17
2019-03-17T01:39:11.198Z,6.57
2019-03-17T01:41:41.798Z,7.60
2019-03-17T01:44:12.124Z,7.30
2019-03-17T01:46:42.469Z,7.83
2019-03-17T01:49:13.150Z,6.83
2019-03-17T01:51:43.801Z,6.47
2019-03-17T01:54:14.096Z,6.20
2019-03-17T01:56:44.779Z,6.93
2019-03-17T01:59:15.189Z,6.70
2019-03-17T02:01:45.473Z,7.17
2019-03-17T02:04:15.851Z,7.60
2019-03-17T02:06:46.586Z,7.37
2019-03-17T02:09:16.920Z,7.20
2019-03-17T02:11:47.265Z,7.57
2019-03-17T02:14:17.995Z,8.10
2019-03-17T02:16:48.282Z,7.53
2019-03-17T02:19:19.677Z,7.00
2019-03-17T02:21:50.342Z,7.60
2019-03-17T02:24:20.853Z,7.70
2019-03-17T02:26:51.127Z,7.23
2019-03-17T02:29:21.765Z,6.63
2019-03-17T02:31:52.143Z,7.10
2019-03-17T02:34:22.853Z,6.77
2019-03-17T02:36:53.139Z,7.37
2019-03-17T02:39:26.294Z,6.97
2019-03-17T02:41:55.982Z,9.17
2019-03-17T02:44:26.297Z,7.27
2019-03-17T02:46:56.636Z,6.17
2019-03-17T02:49:27.339Z,6.60
2019-03-17T02:51:57.970Z,7.53
2019-03-17T02:54:28.252Z,7.70
2019-03-17T02:56:58.934Z,6.37
2019-03-17T02:59:29.633Z,8.20
2019-03-17T03:02:00.091Z,7.50
2019-03-17T03:04:30.733Z,7.30
2019-03-17T03:07:01.058Z,6.47
2019-03-17T03:09:31.636Z,9.20
2019-03-17T03:12:02.158Z,7.17
2019-03-17T03:14:33.361Z,8.20
2019-03-17T03:17:04.082Z,8.43
2019-03-17T03:19:35.860Z,6.47
2019-03-17T03:22:06.198Z,7.73
2019-03-17T03:24:36.585Z,6.53
2019-03-17T03:27:07.204Z,6.60
2019-03-17T03:29:37.516Z,6.00
2019-03-17T03:32:08.077Z,5.37
2019-03-17T03:34:38.522Z,7.77
2019-03-17T03:37:09.014Z,6.73
2019-03-17T03:39:39.409Z,6.63
2019-03-17T03:42:09.685Z,6.83
2019-03-17T03:44:40.066Z,6.70
2019-03-17T03:47:10.781Z,6.70
2019-03-17T03:49:41.111Z,6.90
2019-03-17T03:52:11.441Z,5.90
2019-03-17T03:54:42.135Z,5.80
2019-03-17T03:57:12.422Z,6.63
2019-03-17T03:59:42.901Z,5.63
2019-03-17T04:02:13.634Z,4.87
2019-03-17T04:04:44.199Z,5.87
2019-03-17T04:07:14.887Z,3.93
2019-03-17T04:09:45.203Z,4.00
2019-03-17T04:12:15.483Z,4.60
2019-03-17T04:14:45.842Z,4.83
2019-03-17T04:17:16.165Z,2.80
2019-03-17T04:19:46.473Z,3.97
2019-03-17T04:22:17.040Z,6.27
2019-03-17T04:24:47.483Z,3.93
2019-03-17T04:27:17.931Z,4.80
2019-03-17T04:29:48.604Z,3.50
2019-03-17T04:32:19.358Z,2.97
2019-03-17T04:34:49.641Z,4.47
2019-03-17T04:37:20.319Z,3.87
2019-03-17T04:39:50.803Z,4.07
2019-03-17T04:42:21.207Z,6.30
2019-03-17T04:44:51.721Z,5.07
2019-03-17T04:47:22.029Z,3.53
2019-03-17T04:49:52.473Z,4.87
2019-03-17T04:55:47.658Z,10.33
2019-03-17T04:58:18.295Z,14.67
2019-03-17T05:00:48.952Z,11.93
2019-03-17T05:03:19.227Z,9.03
2019-03-17T05:05:49.876Z,7.40
2019-03-17T05:08:20.550Z,5.80
2019-03-17T05:10:52.500Z,6.37
2019-03-17T05:13:22.910Z,6.40
2019-03-17T05:15:53.239Z,5.60
2019-03-17T05:18:23.961Z,6.60
2019-03-17T05:20:54.549Z,5.57
2019-03-17T05:24:00.225Z,6.37
2019-03-17T05:26:30.888Z,7.73
2019-03-17T05:29:01.563Z,5.90
2019-03-17T05:31:31.832Z,7.07
2019-03-17T05:34:02.299Z,6.33
2019-03-17T05:36:32.898Z,6.60
2019-03-17T05:39:03.212Z,5.50
2019-03-17T05:41:33.497Z,5.90
2019-03-17T05:44:03.873Z,5.87
2019-03-17T05:46:34.527Z,5.80
2019-03-17T05:49:05.233Z,6.77
2019-03-17T05:51:35.552Z,5.57
2019-03-17T05:54:06.206Z,6.07
2019-03-17T05:56:37.287Z,6.17
2019-03-17T05:59:07.572Z,7.03
2019-03-17T06:01:37.853Z,6.23
2019-03-17T06:04:09.564Z,6.37
2019-03-17T06:06:40.057Z,6.47
2019-03-17T06:09:10.329Z,6.13
2019-03-17T06:11:40.964Z,5.63
2019-03-17T06:14:11.280Z,4.97
2019-03-17T06:16:41.613Z,5.70
2019-03-17T06:19:12.211Z,6.53
2019-03-17T06:21:42.894Z,5.97
2019-03-17T06:24:13.205Z,6.23
2019-03-17T06:26:43.647Z,6.53
2019-03-17T06:29:14.340Z,7.07
2019-03-17T06:31:45.646Z,5.40
2019-03-17T06:34:16.043Z,5.43
2019-03-17T06:36:46.686Z,7.80
2019-03-17T06:39:16.963Z,6.70
2019-03-17T06:41:48.262Z,6.47
2019-03-17T06:44:18.648Z,6.07
2019-03-17T06:46:48.945Z,5.60
2019-03-17T06:49:19.638Z,6.23
2019-03-17T06:51:50.098Z,5.20
2019-03-17T06:54:20.504Z,6.10
2019-03-17T06:56:51.252Z,7.47
2019-03-17T06:59:21.595Z,6.70
2019-03-17T07:01:51.901Z,6.37
2019-03-17T07:04:22.714Z,7.17
2019-03-17T07:06:53.007Z,6.67
2019-03-17T07:09:23.322Z,6.83
2019-03-17T07:11:53.971Z,6.50
2019-03-17T07:14:24.620Z,6.43
2019-03-17T07:16:54.928Z,5.63
2019-03-17T07:19:25.562Z,6.00
2019-03-17T07:21:55.905Z,5.80
2019-03-17T07:24:26.307Z,6.43
2019-03-17T07:26:56.671Z,5.77
2019-03-17T07:29:27.020Z,5.40
2019-03-17T07:31:57.682Z,6.30
2019-03-17T07:34:28.209Z,8.30
2019-03-17T07:36:58.492Z,6.97
2019-03-17T07:39:29.125Z,6.17
2019-03-17T07:41:59.494Z,6.70
2019-03-17T07:44:29.838Z,6.27
2019-03-17T07:47:00.562Z,6.50
2019-03-17T07:49:31.315Z,6.50
2019-03-17T07:52:01.613Z,6.47
2019-03-17T07:54:34.902Z,7.07
2019-03-17T07:57:04.120Z,6.67
2019-03-17T07:59:34.798Z,6.53
2019-03-17T08:02:05.364Z,7.73
2019-03-17T08:04:42.858Z,6.70
2019-03-17T08:07:08.030Z,8.50
2019-03-17T08:09:38.409Z,10.50
2019-03-17T08:12:09.720Z,10.50
2019-03-17T08:14:40.067Z,8.80
2019-03-17T08:17:10.614Z,8.93
2019-03-17T08:19:41.248Z,9.33
2019-03-17T08:22:11.569Z,9.47
2019-03-17T08:24:41.944Z,8.53
2019-03-17T08:27:12.731Z,9.77
2019-03-17T08:29:43.514Z,10.00
2019-03-17T08:32:13.802Z,8.93
2019-03-17T08:34:44.257Z,9.03
2019-03-17T08:37:14.992Z,8.30
2019-03-17T08:39:45.328Z,8.67
2019-03-17T08:42:15.676Z,8.47
2019-03-17T08:44:46.232Z,8.80
2019-03-17T08:47:16.542Z,6.83
2019-03-17T08:49:46.828Z,6.97
2019-03-17T08:52:17.557Z,9.63
2019-03-17T08:54:48.190Z,6.73
2019-03-17T08:57:19.027Z,7.00
2019-03-17T08:59:49.312Z,7.87
2019-03-17T09:02:19.654Z,8.70
2019-03-17T09:04:50.174Z,6.27
2019-03-17T09:07:20.520Z,6.60
2019-03-17T09:09:50.825Z,6.83
2019-03-17T09:12:22.621Z,6.60
2019-03-17T09:14:53.105Z,4.93
2019-03-17T09:17:23.374Z,4.70
2019-03-17T09:19:55.135Z,4.00
2019-03-17T09:22:25.845Z,2.10
2019-03-17T09:24:57.196Z,1.83
2019-03-17T09:27:27.899Z,2.30
2019-03-17T09:29:58.296Z,1.70
2019-03-17T09:32:28.966Z,1.63
2019-03-17T09:34:59.551Z,1.63
2019-03-17T09:37:29.926Z,1.80
2019-03-17T09:40:00.492Z,2.17
2019-03-17T09:42:31.078Z,2.00
2019-03-17T09:45:01.503Z,2.13
2019-03-17T09:47:31.911Z,1.83
2019-03-17T09:50:02.586Z,2.20
2019-03-17T09:52:32.905Z,2.30
2019-03-17T09:55:03.233Z,2.60
2019-03-17T09:57:33.897Z,2.93
2019-03-17T10:00:04.904Z,1.87
2019-03-17T10:02:35.548Z,2.13
2019-03-17T10:05:06.503Z,2.73
2019-03-17T10:07:37.297Z,2.40
2019-03-17T10:10:09.007Z,2.70
2019-03-17T10:12:39.297Z,2.40
2019-03-17T10:15:11.258Z,2.03
2019-03-17T10:17:41.947Z,1.97
2019-03-17T10:20:14.924Z,2.03
2019-03-17T10:22:45.274Z,2.73
2019-03-17T10:25:16.037Z,1.97
2019-03-17T10:27:46.511Z,2.13
2019-03-17T10:30:17.058Z,2.00
2019-03-17T10:32:48.067Z,2.30
2019-03-17T10:35:18.389Z,2.00
2019-03-17T10:37:48.714Z,2.20
2019-03-17T10:40:19.539Z,1.90
2019-03-17T10:42:49.922Z,2.50
2019-03-17T10:45:20.236Z,1.60
2019-03-17T10:47:50.644Z,2.60
2019-03-17T10:50:21.576Z,2.10
2019-03-17T10:52:51.982Z,2.50
2019-03-17T10:55:23.361Z,3.10
2019-03-17T10:57:54.057Z,2.47
2019-03-17T11:00:24.567Z,2.87
2019-03-17T11:02:55.660Z,3.10
2019-03-17T11:05:26.210Z,2.57
2019-03-17T11:07:56.825Z,2.77
2019-03-17T11:10:27.204Z,2.83
2019-03-17T11:12:57.522Z,1.90
2019-03-17T11:15:27.970Z,2.67
2019-03-17T11:17:59.520Z,1.93
2019-03-17T11:20:29.816Z,2.53
2019-03-17T11:23:00.180Z,2.10
2019-03-17T11:25:30.827Z,2.50
2019-03-17T11:28:01.138Z,2.53
2019-03-17T11:30:31.436Z,2.53
2019-03-17T11:33:02.117Z,2.23
2019-03-17T11:35:32.566Z,2.03
2019-03-17T11:38:03.173Z,1.73
2019-03-17T11:40:33.491Z,1.90
2019-03-17T11:43:03.839Z,2.37
2019-03-17T11:45:34.427Z,2.23
2019-03-17T11:48:04.760Z,2.50
2019-03-17T11:50:35.049Z,2.00
2019-03-17T11:53:05.990Z,2.30
2019-03-17T11:55:36.439Z,2.00
2019-03-17T11:58:06.843Z,1.90
2019-03-17T12:00:37.640Z,1.97
2019-03-17T12:03:08.272Z,1.90
2019-03-17T12:05:38.604Z,2.20
2019-03-17T12:08:09.668Z,2.43
2019-03-17T12:10:39.972Z,1.60
2019-03-17T12:13:10.604Z,2.07
2019-03-17T12:15:41.134Z,2.80
2019-03-17T12:18:11.463Z,2.00
2019-03-17T12:20:42.335Z,2.27
2019-03-17T12:23:12.988Z,2.30
2019-03-17T12:25:43.402Z,2.30
2019-03-17T12:28:14.896Z,3.00
2019-03-17T12:30:45.292Z,2.17
2019-03-17T12:33:15.587Z,2.03
2019-03-17T12:35:46.015Z,2.13
2019-03-17T12:38:16.791Z,1.83
2019-03-17T12:40:47.139Z,2.50
2019-03-17T12:43:17.866Z,2.30
2019-03-17T12:45:48.175Z,1.60
2019-03-17T12:48:18.810Z,2.12
2019-03-17T12:50:49.486Z,1.90
2019-03-17T12:53:19.760Z,2.20
2019-03-17T12:55:50.117Z,2.33
2019-03-17T12:58:20.727Z,2.30
2019-03-17T13:00:51.229Z,2.23
2019-03-17T13:03:21.595Z,2.00
2019-03-17T13:05:52.403Z,1.98
2019-03-17T13:08:22.759Z,2.22
2019-03-17T13:10:53.044Z,2.42
2019-03-17T13:13:23.725Z,2.50
2019-03-17T13:15:54.129Z,2.17
2019-03-17T13:18:24.798Z,2.05
2019-03-17T13:20:55.072Z,2.70
2019-03-17T13:23:25.394Z,1.98
2019-03-17T13:25:55.771Z,2.40
2019-03-17T13:28:26.188Z,2.90
2019-03-17T13:30:56.481Z,2.25
2019-03-17T13:33:27.156Z,2.08
2019-03-17T13:35:57.608Z,1.70
2019-03-17T13:38:27.934Z,2.05
2019-03-17T13:40:58.633Z,2.15
2019-03-17T13:43:29.351Z,2.00
2019-03-17T13:45:59.876Z,2.47
2019-03-17T13:48:42.894Z,2.33
2019-03-17T13:51:13.360Z,2.40
2019-03-17T13:53:42.521Z,2.20
2019-03-17T13:56:12.820Z,2.45
2019-03-17T13:58:43.469Z,2.20
2019-03-17T14:01:14.060Z,2.30
2019-03-17T14:03:44.657Z,1.82
2019-03-17T14:06:15.396Z,2.37
2019-03-17T14:08:45.845Z,2.35
2019-03-17T14:11:17.466Z,2.30
2019-03-17T14:13:48.034Z,2.02
2019-03-17T14:16:18.724Z,2.08
2019-03-17T14:18:49.398Z,2.45
2019-03-17T14:21:19.841Z,2.12
2019-03-17T14:23:50.595Z,2.67
2019-03-17T14:26:20.955Z,2.15
2019-03-17T14:28:51.762Z,2.60
2019-03-17T14:31:22.433Z,1.65
2019-03-17T14:33:53.124Z,4.03
2019-03-17T14:36:23.940Z,2.40
2019-03-17T14:38:54.658Z,1.70
2019-03-17T14:41:25.383Z,1.98
2019-03-17T14:43:56.026Z,2.52
2019-03-17T14:46:26.817Z,2.25
2019-03-17T14:48:57.455Z,2.35
2019-03-17T14:51:27.903Z,2.52
2019-03-17T14:53:58.289Z,2.00
2019-03-17T14:56:28.892Z,1.77
2019-03-17T14:58:59.518Z,2.33
2019-03-17T15:01:30.249Z,2.65
2019-03-17T15:04:00.997Z,3.42
2019-03-17T15:06:31.757Z,3.50
2019-03-17T15:09:02.476Z,2.50
2019-03-17T15:11:33.150Z,2.87
2019-03-17T15:14:03.894Z,2.50
2019-03-17T15:16:36.960Z,2.15
2019-03-17T15:19:06.996Z,2.00
2019-03-17T15:21:37.378Z,2.02
2019-03-17T15:24:08.078Z,2.80
2019-03-17T15:26:38.687Z,3.37
2019-03-17T15:29:09.273Z,3.92
2019-03-17T15:31:39.958Z,3.60
2019-03-17T15:34:12.061Z,4.67
2019-03-17T15:36:43.694Z,3.95
2019-03-17T15:39:14.566Z,4.08
2019-03-17T15:41:46.269Z,4.22
2019-03-17T15:44:17.001Z,4.15
2019-03-17T15:46:47.756Z,4.40
2019-03-17T15:49:18.433Z,3.37
2019-03-17T15:51:48.835Z,3.85
2019-03-17T15:54:21.406Z,3.95
2019-03-17T15:56:51.831Z,3.98
2019-03-17T15:59:22.541Z,3.55
2019-03-17T16:01:54.234Z,4.45
2019-03-17T16:04:24.926Z,4.92
2019-03-17T16:06:55.604Z,4.37
2019-03-17T16:09:28.663Z,5.08
2019-03-17T16:11:58.771Z,6.62
2019-03-17T16:14:29.313Z,7.97
2019-03-17T16:16:59.974Z,4.92
2019-03-17T16:19:30.714Z,5.08
2019-03-17T16:22:01.186Z,6.25
2019-03-17T16:24:31.580Z,6.63
2019-03-17T16:27:02.525Z,5.67
2019-03-17T16:29:33.056Z,6.27
2019-03-17T16:32:03.769Z,10.87
2019-03-17T16:34:34.277Z,10.30
2019-03-17T16:37:05.199Z,7.10
2019-03-17T16:39:35.627Z,7.23
2019-03-17T16:42:06.518Z,7.10
2019-03-17T16:44:37.306Z,9.07
2019-03-17T16:47:08.062Z,10.33
2019-03-17T16:49:38.466Z,9.97
2019-03-17T16:52:09.067Z,8.93
2019-03-17T16:54:39.491Z,9.00
2019-03-17T16:57:10.187Z,9.37
2019-03-17T16:59:41.051Z,11.50
2019-03-17T17:02:11.719Z,21.17
2019-03-17T17:04:42.356Z,26.57
2019-03-17T17:07:13.409Z,29.13
2019-03-17T17:09:44.134Z,29.57
2019-03-17T17:12:14.830Z,40.07
2019-03-17T17:14:45.568Z,85.27
2019-03-17T17:17:16.024Z,149.07
2019-03-17T17:19:46.440Z,121.17
2019-03-17T17:22:17.120Z,102.57
2019-03-17T17:24:47.541Z,99.67
2019-03-17T17:27:20.490Z,77.23
2019-03-17T17:29:51.625Z,54.40
2019-03-17T17:32:22.488Z,45.30
2019-03-17T17:34:53.131Z,42.97
2019-03-17T17:37:24.325Z,38.03
2019-03-17T17:39:54.948Z,42.50
2019-03-17T17:42:25.407Z,31.50
2019-03-17T17:44:55.820Z,24.30
2019-03-17T17:47:27.759Z,21.93
2019-03-17T17:49:58.202Z,22.00
2019-03-17T17:52:28.577Z,15.07
2019-03-17T17:54:59.150Z,14.37
2019-03-17T17:57:29.878Z,12.20
2019-03-17T18:00:00.399Z,11.87
2019-03-17T18:02:31.209Z,13.10
2019-03-17T18:05:01.513Z,16.37
2019-03-17T18:07:32.203Z,16.63
2019-03-17T18:10:02.942Z,14.57
2019-03-17T18:12:33.287Z,15.77
2019-03-17T18:15:03.960Z,14.60
2019-03-17T18:17:34.593Z,14.77
2019-03-17T18:20:05.214Z,14.50
2019-03-17T18:22:35.640Z,15.73
2019-03-17T18:25:06.549Z,15.27
2019-03-17T18:27:36.880Z,16.90
2019-03-17T18:30:08.475Z,17.50
2019-03-17T18:32:39.135Z,15.10
2019-03-17T18:35:09.902Z,12.90
2019-03-17T18:37:40.723Z,10.63
2019-03-17T18:40:12.509Z,12.10
2019-03-17T18:42:43.371Z,12.63
2019-03-17T18:45:15.856Z,13.37
2019-03-17T18:47:46.213Z,13.93
2019-03-17T18:50:20.683Z,13.70
2019-03-17T18:52:48.845Z,14.37
2019-03-17T18:55:20.116Z,15.50
2019-03-17T18:57:50.720Z,15.17
2019-03-17T19:00:21.679Z,16.73
2019-03-17T19:02:52.117Z,15.93
2019-03-17T19:05:22.408Z,15.70
2019-03-17T19:07:53.376Z,16.27
2019-03-17T19:10:23.864Z,15.27
2019-03-17T19:12:54.205Z,14.27
2019-03-17T19:15:25.068Z,21.30
2019-03-17T19:17:55.841Z,18.37
2019-03-17T19:20:26.195Z,15.83
2019-03-17T19:22:56.591Z,14.13
2019-03-17T19:25:27.138Z,14.53
2019-03-17T19:27:57.823Z,15.87
2019-03-17T19:30:28.251Z,20.13
2019-03-17T19:32:58.993Z,17.50
2019-03-17T19:35:29.321Z,15.13
2019-03-17T19:37:59.631Z,13.47
2019-03-17T19:40:30.143Z,11.93
2019-03-17T19:43:00.899Z,9.80
2019-03-17T19:45:31.579Z,10.63
2019-03-17T19:48:02.047Z,13.53
2019-03-17T19:50:32.544Z,12.00
2019-03-17T19:53:03.384Z,17.30
2019-03-17T19:55:33.755Z,11.77
2019-03-17T19:58:04.088Z,17.00
2019-03-17T20:00:34.569Z,14.87
2019-03-17T20:03:04.899Z,12.47
2019-03-17T20:05:35.191Z,15.97
2019-03-17T20:08:05.844Z,18.57
2019-03-17T20:10:36.400Z,20.40
2019-03-17T20:13:11.807Z,23.17
2019-03-17T20:15:39.191Z,21.70
2019-03-17T20:18:09.540Z,22.83
2019-03-17T20:20:40.220Z,27.17
2019-03-17T20:23:10.508Z,21.60
2019-03-17T20:25:40.794Z,32.20
2019-03-17T20:28:11.667Z,25.63
2019-03-17T20:30:42.141Z,21.07
2019-03-17T20:33:12.447Z,25.73
2019-03-17T20:35:43.201Z,31.17
2019-03-17T20:38:13.785Z,24.50
2019-03-17T20:40:44.136Z,16.17
2019-03-17T20:43:23.731Z,20.50
2019-03-17T20:45:46.870Z,18.37
2019-03-17T20:48:17.523Z,18.07
2019-03-17T20:50:48.274Z,20.60
2019-03-17T20:53:18.929Z,16.67
2019-03-17T20:55:49.499Z,17.33
2019-03-17T20:58:20.276Z,16.10
2019-03-17T21:00:50.679Z,16.30
2019-03-17T21:03:21.545Z,15.77
2019-03-17T21:05:52.475Z,17.73
2019-03-17T21:08:22.864Z,18.10
2019-03-17T21:10:53.512Z,15.07
2019-03-17T21:13:24.239Z,22.47
2019-03-17T21:15:54.590Z,15.73
2019-03-17T21:18:25.238Z,36.90
2019-03-17T21:20:55.549Z,18.23
2019-03-17T21:23:25.946Z,13.13
2019-03-17T21:25:56.622Z,16.43
2019-03-17T21:28:27.823Z,18.63
2019-03-17T21:30:58.342Z,18.63
2019-03-17T21:33:29.039Z,21.07
2019-03-17T21:35:59.323Z,19.43
2019-03-17T21:38:29.638Z,22.23
2019-03-17T21:41:07.066Z,22.83
2019-03-17T21:43:32.386Z,19.17
2019-03-17T21:46:02.690Z,18.93
2019-03-17T21:48:33.447Z,15.67
2019-03-17T21:51:03.795Z,16.80
2019-03-17T21:53:34.207Z,18.47
2019-03-17T21:56:04.507Z,16.23
2019-03-17T21:58:34.836Z,16.67
2019-03-17T22:01:05.381Z,17.03
2019-03-17T22:03:35.908Z,21.77
2019-03-17T22:06:06.205Z,21.07
2019-03-17T22:08:36.909Z,20.27
2019-03-17T22:11:07.450Z,19.53
2019-03-17T22:13:37.789Z,22.77
2019-03-17T22:16:08.457Z,21.33
2019-03-17T22:18:39.723Z,19.60
2019-03-17T22:21:11.056Z,19.30
2019-03-17T22:23:41.556Z,18.90
2019-03-17T22:26:11.947Z,23.50
2019-03-17T22:28:42.672Z,23.90
2019-03-17T22:31:13.115Z,20.93
2019-03-17T22:33:43.664Z,18.20
2019-03-17T22:36:14.367Z,16.97
2019-03-17T22:38:45.013Z,13.17
2019-03-17T22:41:15.289Z,15.20
2019-03-17T22:43:45.964Z,14.30
2019-03-17T22:46:16.654Z,12.40
2019-03-17T22:48:47.133Z,13.93
2019-03-17T22:51:18.819Z,14.20
2019-03-17T22:53:49.095Z,12.77
2019-03-17T22:56:19.469Z,11.90
2019-03-17T22:58:49.865Z,12.77
2019-03-17T23:01:20.163Z,10.90
2019-03-17T23:03:50.827Z,11.87
2019-03-17T23:06:21.622Z,10.33
2019-03-17T23:08:52.174Z,10.50
2019-03-17T23:11:23.796Z,11.13
2019-03-17T23:13:54.628Z,10.03
2019-03-17T23:16:25.024Z,10.50
2019-03-17T23:18:55.365Z,10.73
2019-03-17T23:21:26.022Z,9.50
2019-03-17T23:23:56.630Z,10.17
2019-03-17T23:26:27.994Z,12.00
2019-03-17T23:28:58.786Z,11.80
2019-03-17T23:31:30.189Z,11.10
2019-03-17T23:34:00.610Z,9.83
2019-03-17T23:36:31.292Z,7.83
2019-03-17T23:39:02.069Z,8.30
2019-03-17T23:41:33.432Z,8.60
2019-03-17T23:44:04.196Z,8.20
2019-03-17T23:46:35.100Z,9.17
2019-03-17T23:49:05.424Z,8.43
2019-03-17T23:51:36.932Z,8.70
2019-03-17T23:54:07.756Z,8.97
2019-03-17T23:56:38.046Z,8.63
2019-03-17T23:59:08.721Z,7.73
